Time;durP1;ratioP1;P1;durP2;ratioP2;P2;SDS_P1;SDS_P2;PMS_P1;PMS_P2;Temp;Humidity;BMP_temperature;BMP_pressure;BME280_temperature;BME280_humidity;BME280_pressure;Samples;Min_cycle;Max_cycle;Signal;HPM_P1;HPM_P2
2021/03/13 00:00:09;;;;;;;;;;;;;;;;;;2114324;28;47291;-60
2021/03/13 00:01:12;;;;;;;;;;;;;;;;;;2114195;28;46100;-60
2021/03/13 00:02:13;;;;;;;;;;;;;;;;;;2114939;27;44930;-60
2021/03/13 00:03:16;;;;;;;;;;;;;;;;;;2114106;28;46771;-60
2021/03/13 00:04:17;;;;;;;;;;;;;;;;;;2106572;28;44147;-60
2021/03/13 00:05:24;;;;;;;;;;;;;;;;;;2114075;28;46126;-60
2021/03/13 00:06:27;;;;;;;;;;;;;;;;;;2114884;27;44517;-60
2021/03/13 00:07:31;;;;;;;;;;;;;;;;;;2114255;28;44672;-60
2021/03/13 00:08:36;;;;;;;;;;;;;;;;;;2114178;28;47198;-60
2021/03/13 00:09:37;;;;;;;;;;;;;;;;;;2114780;28;44021;-60
2021/03/13 00:10:40;;;;;;;;;;;;;;;;;;2114838;27;43009;-60
2021/03/13 00:11:42;;;;;;;;;;;;;;;;;;2113878;27;45644;-60
2021/03/13 00:12:45;;;;;;;;;;;;;;;;;;2106412;28;44423;-60
2021/03/13 00:13:46;;;;;;;;;;;;;;;;;;2105991;28;43820;-60
2021/03/13 00:14:50;;;;;;;;;;;;;;;;;;2114368;28;44574;-60
2021/03/13 00:15:51;;;;;;;;;;;;;;;;;;2114578;27;43857;-60
2021/03/13 00:16:52;;;;;;;;;;;;;;;;;;2114333;28;43796;-60
2021/03/13 00:17:56;;;;;;;;;;;;;;;;;;2114217;28;43884;-60
2021/03/13 00:18:57;;;;;;;;;;;;;;;;;;2114132;28;43946;-60
2021/03/13 00:20:14;;;;;;;;;;;;;;;;;;2108192;27;15102;-60
2021/03/13 00:21:17;;;;;;;;;;;;;;;;;;2114205;28;43981;-60
2021/03/13 00:22:30;;;;;;;;;;;;;;;;;;2113685;28;44375;-60
2021/03/13 00:23:32;;;;;;;;;;;;;;;;;;2114033;28;44300;-60
2021/03/13 00:24:34;;;;;;;;;;;;;;;;;;2114570;27;44429;-60
2021/03/13 00:25:41;;;;;;;;;;;;;;;;;;2115039;27;42825;-61
2021/03/13 00:28:45;;;;;;;;;;;;;;;;;;2114641;28;14427;-60
2021/03/13 00:29:48;;;;;;;;;;;;;;;;;;2114810;27;45399;-61
2021/03/13 00:30:50;;;;;;;;;;;;;;;;;;2114083;28;44427;-60
2021/03/13 00:31:54;;;;;;;;;;;;;;;;;;2114024;27;44455;-61
2021/03/13 00:33:08;;;;;;;;;;;;;;;;;;2115162;27;44228;-61
2021/03/13 00:34:12;;;;;;;;;;;;;;;;;;2114198;28;44972;-60
2021/03/13 00:35:13;;;;;;;;;;;;;;;;;;2114145;28;45645;-60
2021/03/13 00:36:14;;;;;;;;;;;;;;;;;;2114509;27;46757;-60
2021/03/13 00:37:21;;;;;;;;;;;;;;;;;;2114774;27;45700;-60
2021/03/13 00:38:24;;;;;;;;;;;;;;;;;;2114070;27;46904;-60
2021/03/13 00:39:25;;;;;;;;;;;;;;;;;;2114711;27;45377;-60
2021/03/13 00:40:27;;;;;;;;;;;;;;;;;;2114100;28;45481;-61
2021/03/13 00:41:31;;;;;;;;;;;;;;;;;;2113986;28;45314;-60
2021/03/13 00:42:32;;;;;;;;;;;;;;;;;;2114756;27;42976;-61
2021/03/13 00:43:35;;;;;;;;;;;;;;;;;;2113942;28;46801;-60
2021/03/13 00:44:36;;;;;;;;;;;;;;;;;;2105367;28;46440;-60
2021/03/13 00:45:38;;;;;;;;;;;;;;;;;;2105724;28;46768;-60
2021/03/13 00:46:43;;;;;;;;;;;;;;;;;;2114230;27;44873;-60
2021/03/13 00:47:45;;;;;;;;;;;;;;;;;;2114666;27;46616;-60
2021/03/13 00:48:48;;;;;;;;;;;;;;;;;;2113924;28;45355;-60
2021/03/13 00:49:50;;;;;;;;;;;;;;;;;;2114134;28;45867;-60
2021/03/13 00:50:53;;;;;;;;;;;;;;;;;;2113896;28;43471;-60
2021/03/13 00:51:54;;;;;;;;;;;;;;;;;;2113996;28;43482;-60
2021/03/13 00:52:58;;;;;;;;;;;;;;;;;;2105683;28;46758;-60
2021/03/13 00:54:01;;;;;;;;;;;;;;;;;;2113993;28;45799;-60
2021/03/13 00:55:09;;;;;;;;;;;;;;;;;;2114193;28;45233;-61
2021/03/13 00:56:10;;;;;;;;;;;;;;;;;;2114406;27;47149;-60
2021/03/13 00:57:13;;;;;;;;;;;;;;;;;;2115171;28;45554;-60
2021/03/13 00:58:14;;;;;;;;;;;;;;;;;;2115283;28;47269;-61
2021/03/13 00:59:15;;;;;;;;;;;;;;;;;;2115737;27;47050;-60
2021/03/13 01:00:20;;;;;;;;;;;;;;;;;;2115563;28;47243;-60
2021/03/13 01:01:28;;;;;;;;;;;;;;;;;;2115335;28;47106;-60
2021/03/13 01:02:30;;;;;;;;;;;;;;;;;;2116080;27;47416;-61
2021/03/13 01:03:35;;;;;;;;;;;;;;;;;;2114939;28;47064;-61
2021/03/13 01:04:36;;;;;;;;;;;;;;;;;;2115393;28;45829;-60
2021/03/13 01:05:40;;;;;;;;;;;;;;;;;;2116172;27;44618;-60
2021/03/13 01:06:41;;;;;;;;;;;;;;;;;;2116134;27;46859;-60
2021/03/13 01:07:43;;;;;;;;;;;;;;;;;;2115057;28;44831;-61
2021/03/13 01:08:45;;;;;;;;;;;;;;;;;;2115610;28;44178;-61
2021/03/13 01:09:46;;;;;;;;;;;;;;;;;;2115824;27;44515;-61
2021/03/13 01:10:51;;;;;;;;;;;;;;;;;;2116057;27;46911;-60
2021/03/13 01:11:55;;;;;;;;;;;;;;;;;;2115180;28;44715;-60
2021/03/13 01:12:56;;;;;;;;;;;;;;;;;;2115527;28;46848;-60
2021/03/13 01:14:03;;;;;;;;;;;;;;;;;;2115359;28;45906;-60
2021/03/13 01:15:12;;;;;;;;;;;;;;;;;;2115534;28;46119;-60
2021/03/13 01:16:14;;;;;;;;;;;;;;;;;;2115486;28;45765;-61
2021/03/13 01:17:18;;;;;;;;;;;;;;;;;;2115764;28;45489;-60
2021/03/13 01:18:22;;;;;;;;;;;;;;;;;;2115509;27;44544;-60
2021/03/13 01:19:23;;;;;;;;;;;;;;;;;;2115956;27;44414;-60
2021/03/13 01:20:25;;;;;;;;;;;;;;;;;;2115990;27;45594;-60
2021/03/13 01:21:26;;;;;;;;;;;;;;;;;;2115866;27;44135;-60
2021/03/13 01:22:27;;;;;;;;;;;;;;;;;;2115431;28;43998;-61
2021/03/13 01:23:28;;;;;;;;;;;;;;;;;;2115410;28;44314;-61
2021/03/13 01:24:31;;;;;;;;;;;;;;;;;;2115170;28;45129;-61
2021/03/13 01:25:33;;;;;;;;;;;;;;;;;;2115489;28;44086;-61
2021/03/13 01:26:34;;;;;;;;;;;;;;;;;;2115118;27;42963;-60
2021/03/13 01:27:36;;;;;;;;;;;;;;;;;;2115357;28;45305;-60
2021/03/13 01:28:39;;;;;;;;;;;;;;;;;;2115051;28;44910;-61
2021/03/13 01:30:07;;;;;;;;;;;;;;;;;;2115298;28;44173;-60
2021/03/13 01:31:14;;;;;;;;;;;;;;;;;;2115227;28;44406;-61
2021/03/13 01:32:15;;;;;;;;;;;;;;;;;;2115531;27;44606;-61
2021/03/13 01:33:18;;;;;;;;;;;;;;;;;;2116059;27;42866;-60
2021/03/13 01:34:19;;;;;;;;;;;;;;;;;;2115176;28;44511;-60
2021/03/13 01:35:21;;;;;;;;;;;;;;;;;;2106477;28;44488;-60
2021/03/13 01:36:24;;;;;;;;;;;;;;;;;;2115525;28;44789;-61
2021/03/13 01:37:25;;;;;;;;;;;;;;;;;;2115172;28;44235;-61
2021/03/13 01:38:26;;;;;;;;;;;;;;;;;;2115116;28;44443;-61
2021/03/13 01:39:27;;;;;;;;;;;;;;;;;;2115082;28;44076;-61
2021/03/13 01:40:31;;;;;;;;;;;;;;;;;;2115631;28;44584;-61
2021/03/13 01:41:32;;;;;;;;;;;;;;;;;;2114840;28;45465;-62
2021/03/13 01:42:34;;;;;;;;;;;;;;;;;;2115311;28;44266;-62
2021/03/13 01:43:37;;;;;;;;;;;;;;;;;;2115071;28;44113;-61
2021/03/13 01:44:38;;;;;;;;;;;;;;;;;;2115278;28;46462;-61
2021/03/13 01:45:39;;;;;;;;;;;;;;;;;;2115155;28;45571;-62
2021/03/13 01:46:43;;;;;;;;;;;;;;;;;;2115531;27;44462;-61
2021/03/13 01:47:57;;;;;;;;;;;;;;;;;;2115046;27;46844;-61
2021/03/13 01:49:27;;;;;;;;;;;;;;;;;;2114350;28;46660;-61
2021/03/13 01:50:30;;;;;;;;;;;;;;;;;;2115065;28;44790;-61
2021/03/13 01:51:31;;;;;;;;;;;;;;;;;;2114663;28;46732;-61
2021/03/13 01:52:32;;;;;;;;;;;;;;;;;;2114736;28;46162;-61
2021/03/13 01:53:35;;;;;;;;;;;;;;;;;;2114977;28;46829;-61
2021/03/13 01:54:36;;;;;;;;;;;;;;;;;;2115107;28;46482;-61
2021/03/13 01:55:37;;;;;;;;;;;;;;;;;;2115209;28;44294;-61
2021/03/13 01:56:39;;;;;;;;;;;;;;;;;;2116118;28;45130;-61
2021/03/13 01:57:41;;;;;;;;;;;;;;;;;;2115167;27;45189;-61
2021/03/13 01:58:42;;;;;;;;;;;;;;;;;;2115704;27;46778;-61
2021/03/13 01:59:53;;;;;;;;;;;;;;;;;;2115869;27;45820;-61
2021/03/13 02:00:55;;;;;;;;;;;;;;;;;;2115349;28;45471;-61
2021/03/13 02:01:58;;;;;;;;;;;;;;;;;;2114676;27;45622;-61
2021/03/13 02:03:04;;;;;;;;;;;;;;;;;;2116111;27;45322;-61
2021/03/13 02:04:06;;;;;;;;;;;;;;;;;;2114960;27;46082;-61
2021/03/13 02:05:22;;;;;;;;;;;;;;;;;;2115152;28;46953;-61
2021/03/13 02:06:22;;;;;;;;;;;;;;;;;;2114997;28;46151;-61
2021/03/13 02:07:37;;;;;;;;;;;;;;;;;;2114729;27;45849;-60
2021/03/13 02:13:01;;;;;;;;;;;;;;;;;;2116122;28;15223;-61
2021/03/13 02:14:20;;;;;;;;;;;;;;;;;;2114786;28;45782;-61
2021/03/13 02:15:27;;;;;;;;;;;;;;;;;;2115230;28;43481;-61
2021/03/13 02:16:34;;;;;;;;;;;;;;;;;;2114930;28;46945;-61
2021/03/13 02:17:43;;;;;;;;;;;;;;;;;;2115150;28;44751;-60
2021/03/13 02:19:02;;;;;;;;;;;;;;;;;;2114816;28;46773;-61
2021/03/13 02:20:09;;;;;;;;;;;;;;;;;;2115138;28;46119;-61
2021/03/13 02:21:14;;;;;;;;;;;;;;;;;;2115566;27;47295;-61
2021/03/13 02:22:18;;;;;;;;;;;;;;;;;;2115572;27;45604;-60
2021/03/13 02:23:20;;;;;;;;;;;;;;;;;;2115520;27;45823;-60
2021/03/13 02:24:27;;;;;;;;;;;;;;;;;;2115426;27;45695;-60
2021/03/13 02:25:43;;;;;;;;;;;;;;;;;;2115750;27;43803;-60
2021/03/13 02:27:05;;;;;;;;;;;;;;;;;;2114900;27;45756;-61
2021/03/13 02:28:25;;;;;;;;;;;;;;;;;;2115489;28;44297;-61
2021/03/13 02:29:35;;;;;;;;;;;;;;;;;;2115492;28;47126;-60
2021/03/13 02:30:40;;;;;;;;;;;;;;;;;;2115165;28;45850;-60
2021/03/13 02:31:45;;;;;;;;;;;;;;;;;;2114649;27;42780;-60
2021/03/13 02:32:54;;;;;;;;;;;;;;;;;;2115001;28;45577;-61
2021/03/13 02:33:58;;;;;;;;;;;;;;;;;;2114923;28;44821;-61
2021/03/13 02:35:26;;;;;;;;;;;;;;;;;;2106264;28;44231;-61
2021/03/13 02:36:27;;;;;;;;;;;;;;;;;;2110938;28;42519;-60
2021/03/13 02:37:30;;;;;;;;;;;;;;;;;;2114658;28;44394;-61
2021/03/13 02:38:34;;;;;;;;;;;;;;;;;;2106725;28;44219;-60
2021/03/13 02:39:36;;;;;;;;;;;;;;;;;;2106884;28;42894;-60
2021/03/13 02:40:40;;;;;;;;;;;;;;;;;;2114908;28;44332;-60
2021/03/13 02:41:42;;;;;;;;;;;;;;;;;;2114593;28;42500;-60
2021/03/13 02:42:47;;;;;;;;;;;;;;;;;;2114953;28;43859;-60
2021/03/13 02:43:50;;;;;;;;;;;;;;;;;;2114720;28;45351;-59
2021/03/13 02:44:53;;;;;;;;;;;;;;;;;;2115026;28;44360;-59
2021/03/13 02:45:56;;;;;;;;;;;;;;;;;;2114633;28;44263;-60
2021/03/13 02:46:57;;;;;;;;;;;;;;;;;;2106436;28;45719;-60
2021/03/13 02:47:59;;;;;;;;;;;;;;;;;;2106246;28;45482;-60
2021/03/13 02:55:09;;;;;;;;;;;;;;;;;;2123313;27;14402;-60
2021/03/13 02:56:14;;;;;;;;;;;;;;;;;;2124677;27;42614;-60
2021/03/13 02:57:19;;;;;;;;;;;;;;;;;;2124458;27;46875;-60
2021/03/13 02:58:22;;;;;;;;;;;;;;;;;;2124634;27;46548;-60
2021/03/13 02:59:26;;;;;;;;;;;;;;;;;;2124859;27;45708;-61
2021/03/13 03:00:53;;;;;;;;;;;;;;;;;;2115017;28;43914;-60
2021/03/13 03:01:57;;;;;;;;;;;;;;;;;;2126666;27;42528;-60
2021/03/13 03:03:02;;;;;;;;;;;;;;;;;;2123122;27;45195;-60
2021/03/13 03:04:18;;;;;;;;;;;;;;;;;;2122922;27;45160;-60
2021/03/13 03:05:33;;;;;;;;;;;;;;;;;;2117859;27;46653;-60
2021/03/13 03:06:38;;;;;;;;;;;;;;;;;;2125412;27;45188;-60
2021/03/13 03:07:42;;;;;;;;;;;;;;;;;;2132458;27;45493;-60
2021/03/13 03:08:44;;;;;;;;;;;;;;;;;;2132233;27;42834;-60
2021/03/13 03:11:48;;;;;;;;;;;;;;;;;;2123510;27;15356;-60
2021/03/13 03:12:49;;;;;;;;;;;;;;;;;;2122952;27;45258;-60
2021/03/13 03:13:52;;;;;;;;;;;;;;;;;;2123551;27;45042;-60
2021/03/13 03:14:59;;;;;;;;;;;;;;;;;;2132171;27;45361;-61
2021/03/13 03:16:02;;;;;;;;;;;;;;;;;;2131878;27;45485;-61
2021/03/13 03:17:07;;;;;;;;;;;;;;;;;;2122383;27;45720;-61
2021/03/13 03:18:14;;;;;;;;;;;;;;;;;;2123886;27;46666;-61
2021/03/13 03:19:21;;;;;;;;;;;;;;;;;;2131799;27;45707;-63
2021/03/13 03:20:25;;;;;;;;;;;;;;;;;;2132694;27;43961;-61
2021/03/13 03:21:26;;;;;;;;;;;;;;;;;;2131727;27;45555;-61
2021/03/13 03:22:30;;;;;;;;;;;;;;;;;;2132566;27;45705;-61
2021/03/13 03:23:31;;;;;;;;;;;;;;;;;;2132001;27;45511;-61
2021/03/13 03:24:34;;;;;;;;;;;;;;;;;;2132051;27;44672;-61
2021/03/13 03:25:37;;;;;;;;;;;;;;;;;;2132071;27;45812;-61
2021/03/13 03:26:40;;;;;;;;;;;;;;;;;;2132284;27;45435;-61
2021/03/13 03:27:50;;;;;;;;;;;;;;;;;;2122746;27;45990;-61
2021/03/13 03:28:51;;;;;;;;;;;;;;;;;;2122746;27;45826;-61
2021/03/13 03:29:55;;;;;;;;;;;;;;;;;;2122807;27;44051;-61
2021/03/13 03:31:01;;;;;;;;;;;;;;;;;;2115519;27;43323;-61
2021/03/13 03:36:38;;;;;;;;;;;;;;;;;;2132429;27;15102;-62
2021/03/13 03:37:39;;;;;;;;;;;;;;;;;;2130699;27;46786;-61
2021/03/13 03:38:43;;;;;;;;;;;;;;;;;;2123435;27;47335;-61
2021/03/13 03:39:47;;;;;;;;;;;;;;;;;;2122163;27;45828;-61
2021/03/13 03:40:49;;;;;;;;;;;;;;;;;;2123025;27;46112;-61
2021/03/13 03:41:53;;;;;;;;;;;;;;;;;;2123495;27;44066;-61
2021/03/13 03:43:07;;;;;;;;;;;;;;;;;;2123031;27;46124;-61
2021/03/13 03:44:14;;;;;;;;;;;;;;;;;;2124780;27;46111;-61
2021/03/13 03:45:20;;;;;;;;;;;;;;;;;;2122963;27;46391;-61
2021/03/13 03:46:24;;;;;;;;;;;;;;;;;;2124460;27;45993;-61
2021/03/13 03:47:25;;;;;;;;;;;;;;;;;;2131556;27;43015;-61
2021/03/13 03:48:27;;;;;;;;;;;;;;;;;;2132117;27;44396;-61
2021/03/13 03:49:29;;;;;;;;;;;;;;;;;;2122838;27;42675;-61
2021/03/13 03:50:33;;;;;;;;;;;;;;;;;;2123289;27;41704;-61
2021/03/13 03:51:37;;;;;;;;;;;;;;;;;;2122810;27;42976;-61
2021/03/13 03:52:38;;;;;;;;;;;;;;;;;;2122774;27;43268;-61
2021/03/13 03:53:40;;;;;;;;;;;;;;;;;;2122996;27;44530;-61
2021/03/13 03:54:41;;;;;;;;;;;;;;;;;;2122651;27;45532;-61
2021/03/13 03:55:44;;;;;;;;;;;;;;;;;;2114649;27;43312;-61
2021/03/13 03:56:45;;;;;;;;;;;;;;;;;;2123122;27;45656;-61
2021/03/13 03:57:47;;;;;;;;;;;;;;;;;;2122561;27;41419;-61
2021/03/13 03:58:52;;;;;;;;;;;;;;;;;;2122472;27;45337;-61
2021/03/13 03:59:56;;;;;;;;;;;;;;;;;;2122923;27;41758;-61
2021/03/13 04:01:04;;;;;;;;;;;;;;;;;;2123477;27;45700;-61
2021/03/13 04:02:05;;;;;;;;;;;;;;;;;;2122652;27;41788;-61
2021/03/13 04:03:11;;;;;;;;;;;;;;;;;;2123227;27;45604;-61
2021/03/13 04:04:12;;;;;;;;;;;;;;;;;;2122887;27;42359;-61
2021/03/13 04:05:17;;;;;;;;;;;;;;;;;;2122893;27;43785;-61
2021/03/13 04:06:21;;;;;;;;;;;;;;;;;;2122964;27;45355;-61
2021/03/13 04:07:24;;;;;;;;;;;;;;;;;;2122757;27;42931;-60
2021/03/13 04:08:31;;;;;;;;;;;;;;;;;;2122984;27;45453;-60
2021/03/13 04:11:31;;;;;;;;;;;;;;;;;;2130530;27;14389;-60
2021/03/13 04:12:33;;;;;;;;;;;;;;;;;;2132069;27;45492;-61
2021/03/13 04:15:37;;;;;;;;;;;;;;;;;;2130941;27;14489;-61
2021/03/13 04:16:39;;;;;;;;;;;;;;;;;;2131690;27;45331;-61
2021/03/13 04:17:42;;;;;;;;;;;;;;;;;;2131673;27;47049;-61
2021/03/13 04:18:49;;;;;;;;;;;;;;;;;;2122587;27;46572;-61
2021/03/13 04:19:53;;;;;;;;;;;;;;;;;;2115102;27;46692;-61
2021/03/13 04:20:56;;;;;;;;;;;;;;;;;;2123951;27;43570;-61
2021/03/13 04:22:00;;;;;;;;;;;;;;;;;;2131609;27;43999;-62
2021/03/13 04:23:01;;;;;;;;;;;;;;;;;;2122746;27;46740;-61
2021/03/13 04:24:03;;;;;;;;;;;;;;;;;;2122470;27;44349;-61
2021/03/13 04:25:06;;;;;;;;;;;;;;;;;;2114578;27;43963;-61
2021/03/13 04:26:07;;;;;;;;;;;;;;;;;;2122950;27;44012;-61
2021/03/13 04:27:09;;;;;;;;;;;;;;;;;;2122707;27;44820;-61
2021/03/13 04:28:10;;;;;;;;;;;;;;;;;;2122698;27;45419;-61
2021/03/13 04:29:13;;;;;;;;;;;;;;;;;;2122633;27;46542;-61
2021/03/13 04:30:16;;;;;;;;;;;;;;;;;;2122534;27;45182;-61
2021/03/13 04:33:20;;;;;;;;;;;;;;;;;;2131775;27;14717;-61
2021/03/13 04:34:21;;;;;;;;;;;;;;;;;;2131752;27;45236;-61
2021/03/13 04:35:25;;;;;;;;;;;;;;;;;;2122659;27;47253;-61
2021/03/13 04:36:39;;;;;;;;;;;;;;;;;;2122850;27;46008;-61
2021/03/13 04:37:43;;;;;;;;;;;;;;;;;;2131386;27;49454;-61
2021/03/13 04:38:45;;;;;;;;;;;;;;;;;;2131543;27;46013;-61
2021/03/13 04:39:46;;;;;;;;;;;;;;;;;;2121922;27;45900;-61
2021/03/13 04:40:50;;;;;;;;;;;;;;;;;;2123141;27;46865;-61
2021/03/13 04:41:55;;;;;;;;;;;;;;;;;;2131289;27;46999;-61
2021/03/13 04:42:56;;;;;;;;;;;;;;;;;;2131756;27;44831;-61
2021/03/13 04:44:00;;;;;;;;;;;;;;;;;;2131602;27;45726;-61
2021/03/13 04:45:01;;;;;;;;;;;;;;;;;;2131724;27;46964;-61
2021/03/13 04:52:13;;;;;;;;;;;;;;;;;;2130062;27;15038;-61
2021/03/13 04:53:15;;;;;;;;;;;;;;;;;;2121314;27;47206;-61
2021/03/13 04:54:19;;;;;;;;;;;;;;;;;;2122609;27;46128;-60
2021/03/13 04:55:22;;;;;;;;;;;;;;;;;;2121805;27;44511;-60
2021/03/13 04:56:23;;;;;;;;;;;;;;;;;;2114570;27;47410;-61
2021/03/13 04:57:24;;;;;;;;;;;;;;;;;;2122285;27;45606;-61
2021/03/13 04:58:25;;;;;;;;;;;;;;;;;;2122349;27;44940;-61
2021/03/13 04:59:29;;;;;;;;;;;;;;;;;;2122558;27;46746;-61
2021/03/13 05:00:30;;;;;;;;;;;;;;;;;;2123013;27;41942;-61
2021/03/13 05:01:31;;;;;;;;;;;;;;;;;;2121950;27;44066;-61
2021/03/13 05:02:32;;;;;;;;;;;;;;;;;;2122546;27;45521;-61
2021/03/13 05:03:35;;;;;;;;;;;;;;;;;;2122700;27;42928;-61
2021/03/13 05:08:34;;;;;;;;;;;;;;;;;;2130641;27;15533;-61
2021/03/13 05:09:44;;;;;;;;;;;;;;;;;;2131432;27;43761;-61
2021/03/13 05:10:54;;;;;;;;;;;;;;;;;;2131501;27;44348;-61
2021/03/13 05:11:55;;;;;;;;;;;;;;;;;;2131146;27;45588;-61
2021/03/13 05:12:59;;;;;;;;;;;;;;;;;;2131767;27;42670;-61
2021/03/13 05:14:02;;;;;;;;;;;;;;;;;;2122158;27;44593;-61
2021/03/13 05:15:06;;;;;;;;;;;;;;;;;;2122431;27;44467;-61
2021/03/13 05:16:40;;;;;;;;;;;;;;;;;;2121974;27;44227;-60
2021/03/13 05:17:56;;;;;;;;;;;;;;;;;;2126976;27;45067;-61
2021/03/13 05:19:00;;;;;;;;;;;;;;;;;;2131025;27;42953;-61
2021/03/13 05:20:01;;;;;;;;;;;;;;;;;;2131599;27;42036;-61
2021/03/13 05:21:06;;;;;;;;;;;;;;;;;;2122262;27;46714;-61
2021/03/13 05:22:09;;;;;;;;;;;;;;;;;;2122219;27;44248;-61
2021/03/13 05:23:10;;;;;;;;;;;;;;;;;;2122446;27;44462;-60
2021/03/13 05:24:11;;;;;;;;;;;;;;;;;;2122449;27;45551;-60
2021/03/13 05:25:12;;;;;;;;;;;;;;;;;;2131567;27;45230;-61
2021/03/13 05:26:16;;;;;;;;;;;;;;;;;;2122417;27;43549;-60
2021/03/13 05:27:17;;;;;;;;;;;;;;;;;;2122923;27;44247;-60
2021/03/13 05:28:18;;;;;;;;;;;;;;;;;;2131494;27;45387;-61
2021/03/13 05:29:21;;;;;;;;;;;;;;;;;;2131513;27;45575;-61
2021/03/13 05:30:24;;;;;;;;;;;;;;;;;;2122103;27;45650;-61
2021/03/13 05:31:50;;;;;;;;;;;;;;;;;;2113023;27;46757;-61
2021/03/13 05:32:52;;;;;;;;;;;;;;;;;;2126236;27;44270;-61
2021/03/13 05:33:56;;;;;;;;;;;;;;;;;;2122467;27;46331;-61
2021/03/13 05:34:59;;;;;;;;;;;;;;;;;;2123161;27;45389;-61
2021/03/13 05:36:03;;;;;;;;;;;;;;;;;;2131432;27;45460;-61
2021/03/13 05:37:09;;;;;;;;;;;;;;;;;;2122111;27;46622;-61
2021/03/13 05:38:13;;;;;;;;;;;;;;;;;;2123546;27;42753;-60
2021/03/13 05:39:14;;;;;;;;;;;;;;;;;;2131691;27;44420;-61
2021/03/13 05:40:15;;;;;;;;;;;;;;;;;;2131867;27;45268;-61
2021/03/13 05:41:18;;;;;;;;;;;;;;;;;;2122277;27;45632;-61
2021/03/13 05:42:22;;;;;;;;;;;;;;;;;;2122914;27;44005;-61
2021/03/13 05:43:23;;;;;;;;;;;;;;;;;;2123079;27;46256;-60
2021/03/13 05:44:24;;;;;;;;;;;;;;;;;;2124065;27;46493;-61
2021/03/13 05:45:29;;;;;;;;;;;;;;;;;;2133145;27;45712;-61
2021/03/13 05:46:36;;;;;;;;;;;;;;;;;;2133378;27;45743;-61
2021/03/13 05:47:39;;;;;;;;;;;;;;;;;;2132842;27;47265;-61
2021/03/13 05:48:44;;;;;;;;;;;;;;;;;;2123466;27;45980;-61
2021/03/13 05:49:48;;;;;;;;;;;;;;;;;;2124373;27;46025;-61
2021/03/13 05:50:53;;;;;;;;;;;;;;;;;;2123645;27;45498;-61
2021/03/13 05:52:00;;;;;;;;;;;;;;;;;;2123613;27;46821;-61
2021/03/13 05:53:04;;;;;;;;;;;;;;;;;;2123500;27;44529;-61
2021/03/13 05:54:06;;;;;;;;;;;;;;;;;;2115649;27;46831;-61
2021/03/13 05:55:08;;;;;;;;;;;;;;;;;;2123901;27;45608;-61
2021/03/13 05:56:10;;;;;;;;;;;;;;;;;;2132893;27;46604;-61
2021/03/13 05:57:16;;;;;;;;;;;;;;;;;;2123607;27;46141;-61
2021/03/13 05:58:17;;;;;;;;;;;;;;;;;;2123693;27;46115;-61
2021/03/13 05:59:18;;;;;;;;;;;;;;;;;;2123522;27;47298;-61
2021/03/13 06:00:21;;;;;;;;;;;;;;;;;;2124235;27;47227;-61
2021/03/13 06:01:26;;;;;;;;;;;;;;;;;;2123293;27;46876;-61
2021/03/13 06:02:26;;;;;;;;;;;;;;;;;;2122539;27;46911;-61
2021/03/13 06:03:30;;;;;;;;;;;;;;;;;;2123080;27;46202;-61
2021/03/13 06:04:31;;;;;;;;;;;;;;;;;;2124090;27;44302;-61
2021/03/13 06:05:36;;;;;;;;;;;;;;;;;;2123668;27;45980;-61
2021/03/13 06:06:39;;;;;;;;;;;;;;;;;;2133407;27;45730;-61
2021/03/13 06:07:41;;;;;;;;;;;;;;;;;;2132759;27;45980;-61
2021/03/13 06:08:45;;;;;;;;;;;;;;;;;;2123691;27;43735;-61
2021/03/13 06:09:55;;;;;;;;;;;;;;;;;;2124191;27;45775;-61
2021/03/13 06:10:59;;;;;;;;;;;;;;;;;;2125555;27;44160;-61
2021/03/13 06:12:02;;;;;;;;;;;;;;;;;;2123227;27;45369;-61
2021/03/13 06:13:05;;;;;;;;;;;;;;;;;;2123705;27;45676;-61
2021/03/13 06:14:06;;;;;;;;;;;;;;;;;;2123111;27;46631;-61
2021/03/13 06:15:10;;;;;;;;;;;;;;;;;;2115424;27;44609;-61
2021/03/13 06:16:16;;;;;;;;;;;;;;;;;;2124366;27;43732;-61
2021/03/13 06:17:18;;;;;;;;;;;;;;;;;;2132819;27;43102;-61
2021/03/13 06:18:47;;;;;;;;;;;;;;;;;;2132578;27;44083;-61
2021/03/13 06:19:52;;;;;;;;;;;;;;;;;;2123451;27;46406;-61
2021/03/13 06:20:59;;;;;;;;;;;;;;;;;;2123676;27;43127;-61
2021/03/13 06:22:00;;;;;;;;;;;;;;;;;;2123306;27;45502;-61
2021/03/13 06:23:11;;;;;;;;;;;;;;;;;;2123489;27;43242;-61
2021/03/13 06:24:14;;;;;;;;;;;;;;;;;;2123139;27;45424;-61
2021/03/13 06:25:18;;;;;;;;;;;;;;;;;;2123982;27;42612;-61
2021/03/13 06:26:25;;;;;;;;;;;;;;;;;;2123519;27;44244;-61
2021/03/13 06:27:27;;;;;;;;;;;;;;;;;;2123436;27;45621;-61
2021/03/13 06:28:29;;;;;;;;;;;;;;;;;;2114949;27;44190;-61
2021/03/13 06:29:31;;;;;;;;;;;;;;;;;;2123431;27;44509;-61
2021/03/13 06:30:40;;;;;;;;;;;;;;;;;;2123401;27;41781;-61
2021/03/13 06:31:43;;;;;;;;;;;;;;;;;;2132527;27;44450;-61
2021/03/13 06:32:46;;;;;;;;;;;;;;;;;;2132952;27;43565;-61
2021/03/13 06:33:47;;;;;;;;;;;;;;;;;;2123502;27;46665;-61
2021/03/13 06:34:48;;;;;;;;;;;;;;;;;;2123722;27;45238;-61
2021/03/13 06:35:50;;;;;;;;;;;;;;;;;;2123326;27;46720;-61
2021/03/13 06:37:11;;;;;;;;;;;;;;;;;;2123441;27;46424;-61
2021/03/13 06:38:13;;;;;;;;;;;;;;;;;;2126335;27;45868;-61
2021/03/13 06:39:14;;;;;;;;;;;;;;;;;;2132290;27;45486;-61
2021/03/13 06:40:33;;;;;;;;;;;;;;;;;;2123407;27;44407;-61
2021/03/13 06:41:38;;;;;;;;;;;;;;;;;;2125781;27;45081;-61
2021/03/13 06:42:40;;;;;;;;;;;;;;;;;;2132834;27;43586;-62
2021/03/13 06:43:47;;;;;;;;;;;;;;;;;;2132706;27;45302;-61
2021/03/13 06:44:58;;;;;;;;;;;;;;;;;;2123716;27;46547;-61
2021/03/13 06:46:05;;;;;;;;;;;;;;;;;;2123425;27;46705;-61
2021/03/13 06:47:26;;;;;;;;;;;;;;;;;;2115874;27;44698;-61
2021/03/13 06:48:34;;;;;;;;;;;;;;;;;;2128370;27;45625;-61
2021/03/13 06:49:37;;;;;;;;;;;;;;;;;;2132107;27;47613;-60
2021/03/13 06:50:38;;;;;;;;;;;;;;;;;;2133557;27;45573;-61
2021/03/13 06:51:41;;;;;;;;;;;;;;;;;;2132560;27;44910;-61
2021/03/13 06:53:04;;;;;;;;;;;;;;;;;;2133198;27;45197;-61
2021/03/13 06:54:05;;;;;;;;;;;;;;;;;;2123070;27;46637;-61
2021/03/13 06:55:07;;;;;;;;;;;;;;;;;;2124940;27;45379;-61
2021/03/13 06:56:08;;;;;;;;;;;;;;;;;;2124015;27;44350;-61
2021/03/13 06:57:19;;;;;;;;;;;;;;;;;;2124464;27;45555;-61
2021/03/13 06:58:29;;;;;;;;;;;;;;;;;;2123789;27;45642;-62
2021/03/13 06:59:49;;;;;;;;;;;;;;;;;;2123255;27;45745;-61
2021/03/13 07:01:02;;;;;;;;;;;;;;;;;;2127329;27;44522;-61
2021/03/13 07:02:10;;;;;;;;;;;;;;;;;;2123366;27;45582;-61
2021/03/13 07:03:12;;;;;;;;;;;;;;;;;;2123591;27;46968;-61
2021/03/13 07:04:27;;;;;;;;;;;;;;;;;;2115417;27;47321;-61
2021/03/13 07:05:28;;;;;;;;;;;;;;;;;;2123512;27;45650;-61
2021/03/13 07:06:43;;;;;;;;;;;;;;;;;;2124140;27;45582;-61
2021/03/13 07:07:46;;;;;;;;;;;;;;;;;;2123223;27;46001;-62
2021/03/13 07:08:51;;;;;;;;;;;;;;;;;;2124135;27;47003;-61
2021/03/13 07:09:55;;;;;;;;;;;;;;;;;;2123626;27;44317;-61
2021/03/13 07:11:11;;;;;;;;;;;;;;;;;;2123519;27;45690;-61
2021/03/13 07:12:21;;;;;;;;;;;;;;;;;;2123375;27;44567;-61
2021/03/13 07:13:35;;;;;;;;;;;;;;;;;;2124685;27;44726;-60
2021/03/13 07:14:36;;;;;;;;;;;;;;;;;;2132694;27;45405;-61
2021/03/13 07:15:37;;;;;;;;;;;;;;;;;;2123182;27;46379;-61
2021/03/13 07:16:40;;;;;;;;;;;;;;;;;;2123147;27;46095;-61
2021/03/13 07:17:48;;;;;;;;;;;;;;;;;;2123640;27;47106;-60
2021/03/13 07:19:03;;;;;;;;;;;;;;;;;;2131757;27;45835;-60
2021/03/13 07:20:06;;;;;;;;;;;;;;;;;;2132344;27;46924;-61
2021/03/13 07:21:09;;;;;;;;;;;;;;;;;;2132518;27;45799;-60
2021/03/13 07:22:13;;;;;;;;;;;;;;;;;;2123064;27;44281;-60
2021/03/13 07:23:21;;;;;;;;;;;;;;;;;;2123506;27;45645;-60
2021/03/13 07:24:25;;;;;;;;;;;;;;;;;;2132194;27;44211;-60
2021/03/13 07:25:29;;;;;;;;;;;;;;;;;;2132272;27;44478;-60
2021/03/13 07:26:36;;;;;;;;;;;;;;;;;;2123103;27;43876;-60
2021/03/13 07:27:40;;;;;;;;;;;;;;;;;;2123035;27;45710;-61
2021/03/13 07:28:42;;;;;;;;;;;;;;;;;;2123290;27;42839;-60
2021/03/13 07:29:48;;;;;;;;;;;;;;;;;;2123069;27;44813;-60
2021/03/13 07:30:52;;;;;;;;;;;;;;;;;;2124019;27;44652;-60
2021/03/13 07:32:02;;;;;;;;;;;;;;;;;;2124617;27;44512;-63
2021/03/13 07:33:05;;;;;;;;;;;;;;;;;;2138078;27;43636;-60
2021/03/13 07:34:17;;;;;;;;;;;;;;;;;;2140971;27;45672;-60
2021/03/13 07:35:21;;;;;;;;;;;;;;;;;;2140855;27;44331;-60
2021/03/13 07:36:30;;;;;;;;;;;;;;;;;;2140877;27;45575;-61
2021/03/13 07:37:40;;;;;;;;;;;;;;;;;;2140299;27;41308;-61
2021/03/13 07:38:44;;;;;;;;;;;;;;;;;;2131461;27;42767;-60
2021/03/13 07:39:50;;;;;;;;;;;;;;;;;;2122934;27;45515;-60
2021/03/13 07:40:52;;;;;;;;;;;;;;;;;;2132639;27;43127;-60
2021/03/13 07:41:58;;;;;;;;;;;;;;;;;;2140490;27;44190;-61
2021/03/13 07:43:02;;;;;;;;;;;;;;;;;;2140674;27;43926;-60
2021/03/13 07:44:05;;;;;;;;;;;;;;;;;;2129302;27;45452;-60
2021/03/13 07:45:07;;;;;;;;;;;;;;;;;;2131347;27;45788;-60
2021/03/13 07:46:14;;;;;;;;;;;;;;;;;;2137532;27;46758;-60
2021/03/13 07:47:16;;;;;;;;;;;;;;;;;;2131579;27;45484;-60
2021/03/13 07:48:17;;;;;;;;;;;;;;;;;;2123035;27;46598;-61
2021/03/13 07:49:19;;;;;;;;;;;;;;;;;;2131601;27;46474;-60
2021/03/13 07:50:22;;;;;;;;;;;;;;;;;;2131370;27;46897;-61
2021/03/13 07:51:23;;;;;;;;;;;;;;;;;;2122718;27;46558;-60
2021/03/13 07:52:24;;;;;;;;;;;;;;;;;;2131432;27;46355;-60
2021/03/13 07:53:26;;;;;;;;;;;;;;;;;;2140302;27;45551;-60
2021/03/13 07:54:35;;;;;;;;;;;;;;;;;;2140630;27;46545;-61
2021/03/13 07:55:38;;;;;;;;;;;;;;;;;;2131181;27;46629;-60
2021/03/13 07:56:45;;;;;;;;;;;;;;;;;;2132139;27;42402;-61